createdAt,value
2023-02-22T00:01:41.276Z,100804.77
2023-02-22T00:04:11.485Z,100805.98
2023-02-22T00:06:40.591Z,100805.55
2023-02-22T00:09:10.286Z,100803.56
2023-02-22T00:11:39.417Z,100801.19
2023-02-22T00:14:08.505Z,100798.86
2023-02-22T00:16:37.515Z,100796.18
2023-02-22T00:19:06.597Z,100799.31
2023-02-22T00:21:35.812Z,100796.80
2023-02-22T00:24:06.570Z,100798.23
2023-02-22T00:26:35.660Z,100805.34
2023-02-22T00:29:04.781Z,100805.84
2023-02-22T00:31:37.133Z,100809.27
2023-02-22T00:34:06.214Z,100807.52
2023-02-22T00:36:37.519Z,100807.17
2023-02-22T00:39:06.582Z,100808.92
2023-02-22T00:41:35.738Z,100812.83
2023-02-22T00:44:05.089Z,100811.84
2023-02-22T00:46:34.228Z,100813.48
2023-02-22T00:49:03.350Z,100816.38
2023-02-22T00:51:32.459Z,100811.51
2023-02-22T00:54:01.568Z,100813.90
2023-02-22T00:56:32.935Z,100815.73
2023-02-22T00:59:02.030Z,100816.59
2023-02-22T01:01:31.220Z,100816.34
2023-02-22T01:04:00.440Z,100821.63
2023-02-22T01:06:29.613Z,100819.96
2023-02-22T01:08:58.691Z,100823.55
2023-02-22T01:11:28.021Z,100821.14
2023-02-22T01:13:57.345Z,100816.95
2023-02-22T01:16:32.278Z,100819.64
2023-02-22T01:19:01.440Z,100824.16
2023-02-22T01:21:30.556Z,100822.33
2023-02-22T01:23:59.679Z,100821.88
2023-02-22T01:26:28.836Z,100823.50
2023-02-22T01:28:57.887Z,100826.02
2023-02-22T01:31:26.923Z,100827.73
2023-02-22T01:33:55.999Z,100824.89
2023-02-22T01:36:25.042Z,100825.12
2023-02-22T01:38:54.069Z,100824.41
2023-02-22T01:41:23.213Z,100823.86
2023-02-22T01:46:41.207Z,100830.45
2023-02-22T01:49:10.525Z,100826.95
2023-02-22T01:51:41.277Z,100828.86
2023-02-22T01:54:12.898Z,100828.70
2023-02-22T01:56:47.360Z,100827.11
2023-02-22T01:59:17.407Z,100826.47
2023-02-22T02:01:46.611Z,100825.35
2023-02-22T02:04:17.698Z,100826.83
2023-02-22T02:06:47.203Z,100824.35
2023-02-22T02:09:20.117Z,100823.05
2023-02-22T02:11:49.576Z,100823.94
2023-02-22T02:14:18.705Z,100822.73
2023-02-22T02:16:48.834Z,100818.56
2023-02-22T02:19:24.508Z,100820.30
2023-02-22T02:22:10.758Z,100821.28
2023-02-22T02:25:11.724Z,100826.99
2023-02-22T02:27:48.220Z,100821.27
2023-02-22T02:30:39.956Z,100823.14
2023-02-22T02:33:10.609Z,100819.16
2023-02-22T02:35:47.173Z,100817.40
2023-02-22T02:38:21.778Z,100816.60
2023-02-22T02:40:54.728Z,100818.19
2023-02-22T02:43:29.399Z,100815.44
2023-02-22T02:46:03.240Z,100814.19
2023-02-22T02:48:56.692Z,100813.23
2023-02-22T02:51:24.663Z,100814.89
2023-02-22T02:54:25.160Z,100812.07
2023-02-22T02:56:46.060Z,100808.48
2023-02-22T02:59:28.588Z,100813.48
2023-02-22T03:02:19.262Z,100816.08
2023-02-22T03:05:05.113Z,100813.55
2023-02-22T03:07:45.508Z,100815.12
2023-02-22T03:10:30.058Z,100815.49
2023-02-22T03:13:05.590Z,100814.92
2023-02-22T03:15:38.107Z,100814.39
2023-02-22T03:18:08.925Z,100814.15
2023-02-22T03:20:42.995Z,100819.66
2023-02-22T03:23:15.743Z,100819.30
2023-02-22T03:25:47.266Z,100820.69
2023-02-22T03:28:17.716Z,100823.55
2023-02-22T03:30:48.225Z,100822.95
2023-02-22T03:33:20.209Z,100826.33
2023-02-22T03:35:51.756Z,100830.50
2023-02-22T03:38:21.178Z,100834.25
2023-02-22T03:40:51.342Z,100837.55
2023-02-22T03:43:23.799Z,100841.40
2023-02-22T03:45:53.312Z,100845.55
2023-02-22T03:48:26.231Z,100844.38
2023-02-22T03:50:55.303Z,100847.85
2023-02-22T03:53:24.702Z,100842.48
2023-02-22T03:55:55.444Z,100837.23
2023-02-22T03:58:25.861Z,100839.48
2023-02-22T04:00:55.135Z,100840.16
2023-02-22T04:03:24.219Z,100842.98
2023-02-22T04:05:53.287Z,100838.98
2023-02-22T04:08:22.373Z,100840.60
2023-02-22T04:10:51.512Z,100844.02
2023-02-22T04:13:20.629Z,100846.70
2023-02-22T04:15:49.811Z,100842.04
2023-02-22T04:18:19.264Z,100840.20
2023-02-22T04:20:48.450Z,100839.30
2023-02-22T04:23:17.602Z,100837.87
2023-02-22T04:25:46.694Z,100843.23
2023-02-22T04:28:15.841Z,100843.08
2023-02-22T04:30:45.001Z,100844.52
2023-02-22T04:33:14.501Z,100850.42
2023-02-22T04:35:43.732Z,100851.30
2023-02-22T04:38:12.851Z,100851.98
2023-02-22T04:40:42.488Z,100852.89
2023-02-22T04:43:11.575Z,100853.20
2023-02-22T04:45:40.714Z,100856.01
2023-02-22T04:48:10.489Z,100856.76
2023-02-22T04:50:39.606Z,100854.41
2023-02-22T04:53:08.789Z,100850.81
2023-02-22T04:55:37.989Z,100851.23
2023-02-22T04:58:09.191Z,100845.83
2023-02-22T05:00:38.648Z,100847.86
2023-02-22T05:03:07.927Z,100845.10
2023-02-22T05:05:37.017Z,100846.86
2023-02-22T05:08:06.221Z,100847.03
2023-02-22T05:10:35.317Z,100847.77
2023-02-22T05:13:04.521Z,100846.48
2023-02-22T05:15:33.578Z,100845.89
2023-02-22T05:18:02.624Z,100851.22
2023-02-22T05:20:32.547Z,100849.00
2023-02-22T05:23:02.437Z,100845.95
2023-02-22T05:25:32.064Z,100845.69
2023-02-22T05:28:02.366Z,100847.32
2023-02-22T05:30:36.033Z,100848.89
2023-02-22T05:33:05.701Z,100850.59
2023-02-22T05:35:35.064Z,100849.44
2023-02-22T05:38:04.569Z,100846.92
2023-02-22T05:40:40.426Z,100848.79
2023-02-22T05:43:09.994Z,100848.23
2023-02-22T05:45:39.027Z,100849.16
2023-02-22T05:48:08.238Z,100849.53
2023-02-22T05:50:37.279Z,100857.04
2023-02-22T05:53:06.490Z,100857.33
2023-02-22T05:55:35.627Z,100862.98
2023-02-22T05:58:04.681Z,100866.81
2023-02-22T06:00:34.010Z,100868.35
2023-02-22T06:03:03.963Z,100870.87
2023-02-22T06:05:33.169Z,100874.30
2023-02-22T06:08:02.770Z,100873.98
2023-02-22T06:10:32.341Z,100872.20
2023-02-22T06:13:02.168Z,100873.69
2023-02-22T06:15:31.317Z,100872.00
2023-02-22T06:18:01.199Z,100875.27
2023-02-22T06:20:30.361Z,100877.53
2023-02-22T06:22:59.590Z,100879.30
2023-02-22T06:25:29.350Z,100884.91
2023-02-22T06:27:59.261Z,100883.36
2023-02-22T06:30:28.936Z,100888.59
2023-02-22T06:32:58.052Z,100889.96
2023-02-22T06:35:27.163Z,100890.86
2023-02-22T06:37:56.300Z,100897.04
2023-02-22T06:40:32.384Z,100901.60
2023-02-22T06:43:01.606Z,100904.44
2023-02-22T06:45:31.071Z,100905.52
2023-02-22T06:48:00.239Z,100904.02
2023-02-22T06:50:29.992Z,100905.66
2023-02-22T06:52:59.128Z,100905.90
2023-02-22T06:55:50.568Z,100909.15
2023-02-22T06:58:19.678Z,100906.15
2023-02-22T07:00:48.996Z,100904.86
2023-02-22T07:03:18.338Z,100911.87
2023-02-22T07:05:47.531Z,100909.30
2023-02-22T07:08:16.793Z,100913.01
2023-02-22T07:10:48.221Z,100913.19
2023-02-22T07:13:17.449Z,100914.03
2023-02-22T07:15:46.486Z,100918.63
2023-02-22T07:18:15.704Z,100921.73
2023-02-22T07:20:44.834Z,100922.93
2023-02-22T07:23:15.513Z,100924.15
2023-02-22T07:25:44.768Z,100925.39
2023-02-22T07:28:13.891Z,100926.80
2023-02-22T07:30:43.098Z,100928.15
2023-02-22T07:33:13.368Z,100930.86
2023-02-22T07:35:45.559Z,100933.88
2023-02-22T07:38:15.602Z,100931.63
2023-02-22T07:40:45.080Z,100934.52
2023-02-22T07:43:18.018Z,100934.86
2023-02-22T07:45:47.749Z,100937.33
2023-02-22T07:48:19.905Z,100935.89
2023-02-22T07:50:49.089Z,100942.29
2023-02-22T07:53:21.452Z,100938.14
2023-02-22T07:55:56.041Z,100940.16
2023-02-22T07:58:28.163Z,100937.10
2023-02-22T08:00:57.304Z,100936.70
2023-02-22T08:03:48.946Z,100936.10
2023-02-22T08:06:18.315Z,100940.60
2023-02-22T08:08:47.440Z,100944.02
2023-02-22T08:11:16.825Z,100945.82
2023-02-22T08:13:46.144Z,100949.11
2023-02-22T08:16:15.226Z,100949.11
2023-02-22T08:18:47.094Z,100947.27
2023-02-22T08:21:18.545Z,100946.17
2023-02-22T08:23:50.693Z,100942.05
2023-02-22T08:26:19.811Z,100945.60
2023-02-22T08:29:20.577Z,100944.17
2023-02-22T08:31:40.096Z,100945.84
2023-02-22T08:34:09.191Z,100942.59
2023-02-22T08:36:41.506Z,100946.64
2023-02-22T08:39:11.225Z,100947.09
2023-02-22T08:41:42.498Z,100945.17
2023-02-22T08:44:13.200Z,100943.13
2023-02-22T08:46:42.320Z,100941.60
2023-02-22T08:49:11.441Z,100943.30
2023-02-22T08:51:40.509Z,100941.23
2023-02-22T08:54:09.570Z,100936.52
2023-02-22T08:56:38.579Z,100937.26
2023-02-22T08:59:07.659Z,100934.60
2023-02-22T09:01:37.139Z,100935.84
2023-02-22T09:04:06.468Z,100940.60
2023-02-22T09:06:35.654Z,100939.14
2023-02-22T09:09:04.832Z,100940.23
2023-02-22T09:11:33.958Z,100940.92
2023-02-22T09:14:03.136Z,100947.95
2023-02-22T09:16:32.328Z,100949.35
2023-02-22T09:19:01.428Z,100951.23
2023-02-22T09:21:30.535Z,100953.04
2023-02-22T09:23:59.988Z,100954.60
2023-02-22T09:26:32.179Z,100956.06
2023-02-22T09:29:01.281Z,100952.89
2023-02-22T09:31:30.565Z,100957.42
2023-02-22T09:33:59.645Z,100958.27
2023-02-22T09:36:48.606Z,100956.69
2023-02-22T09:39:18.436Z,100955.68
2023-02-22T09:41:51.512Z,100955.33
2023-02-22T09:44:25.091Z,100953.39
2023-02-22T09:46:54.264Z,100955.80
2023-02-22T09:49:27.178Z,100957.74
2023-02-22T09:51:59.937Z,100957.67
2023-02-22T09:54:31.776Z,100956.22
2023-02-22T09:57:02.835Z,100955.84
2023-02-22T09:59:35.900Z,100956.83
2023-02-22T10:02:16.545Z,100960.65
2023-02-22T10:04:49.671Z,100956.38
2023-02-22T10:07:23.445Z,100958.89
2023-02-22T10:09:53.369Z,100956.97
2023-02-22T10:12:28.417Z,100948.25
2023-02-22T10:15:15.363Z,100945.23
2023-02-22T10:17:50.163Z,100946.42
2023-02-22T10:20:34.141Z,100947.33
2023-02-22T10:23:09.450Z,100950.11
2023-02-22T10:25:46.918Z,100946.85
2023-02-22T10:28:21.897Z,100947.66
2023-02-22T10:31:01.997Z,100947.75
2023-02-22T10:33:33.677Z,100947.36
2023-02-22T10:36:05.340Z,100942.10
2023-02-22T10:38:37.446Z,100944.52
2023-02-22T10:41:25.552Z,100945.97
2023-02-22T10:44:01.803Z,100940.25
2023-02-22T10:46:32.010Z,100942.55
2023-02-22T10:49:03.339Z,100942.27
2023-02-22T10:51:38.538Z,100942.14
2023-02-22T10:54:21.260Z,100937.62
2023-02-22T10:56:52.357Z,100939.27
2023-02-22T10:59:33.368Z,100936.88
2023-02-22T11:02:09.680Z,100937.88
2023-02-22T11:04:46.794Z,100935.44
2023-02-22T11:07:21.031Z,100931.47
2023-02-22T11:09:52.293Z,100936.02
2023-02-22T11:12:30.582Z,100934.23
2023-02-22T11:15:19.003Z,100933.01
2023-02-22T11:17:49.945Z,100930.96
2023-02-22T11:20:28.006Z,100931.25
2023-02-22T11:22:58.107Z,100931.51
2023-02-22T11:25:51.644Z,100927.77
2023-02-22T11:28:22.467Z,100927.61
2023-02-22T11:31:22.705Z,100928.06
2023-02-22T11:33:48.652Z,100925.73
2023-02-22T11:36:29.885Z,100932.09
2023-02-22T11:39:01.556Z,100930.33
2023-02-22T11:41:31.417Z,100929.17
2023-02-22T11:44:14.285Z,100927.67
2023-02-22T11:46:43.556Z,100923.41
2023-02-22T11:49:13.788Z,100919.88
2023-02-22T11:51:49.308Z,100921.88
2023-02-22T11:54:38.875Z,100927.34
2023-02-22T11:57:37.431Z,100920.26
2023-02-22T12:00:12.626Z,100923.14
2023-02-22T12:02:57.469Z,100919.13
2023-02-22T12:05:40.456Z,100918.80
2023-02-22T12:08:20.039Z,100918.14
2023-02-22T12:11:03.137Z,100912.17
2023-02-22T12:14:18.415Z,100917.75
2023-02-22T12:16:55.677Z,100909.05
2023-02-22T12:19:27.759Z,100914.65
2023-02-22T12:22:00.888Z,100914.50
2023-02-22T12:24:34.368Z,100915.67
2023-02-22T12:27:07.191Z,100911.61
2023-02-22T12:29:39.551Z,100915.80
2023-02-22T12:32:12.132Z,100912.64
2023-02-22T12:34:44.194Z,100907.83
2023-02-22T12:37:16.890Z,100904.72
2023-02-22T12:39:53.504Z,100905.54
2023-02-22T12:42:26.258Z,100906.18
2023-02-22T12:45:00.261Z,100900.70
2023-02-22T12:47:32.991Z,100899.02
2023-02-22T12:50:16.286Z,100898.34
2023-02-22T12:52:48.133Z,100901.81
2023-02-22T12:55:20.923Z,100906.77
2023-02-22T12:57:55.095Z,100904.67
2023-02-22T13:00:26.423Z,100907.04
2023-02-22T13:03:00.859Z,100908.52
2023-02-22T13:05:34.245Z,100904.64
2023-02-22T13:08:21.692Z,100905.39
2023-02-22T13:10:57.379Z,100909.14
2023-02-22T13:13:31.054Z,100911.50
2023-02-22T13:16:04.796Z,100911.80
2023-02-22T13:18:38.182Z,100909.58
2023-02-22T13:21:12.256Z,100908.58
2023-02-22T13:23:45.537Z,100909.17
2023-02-22T13:26:18.644Z,100909.79
2023-02-22T13:28:50.567Z,100906.92
2023-02-22T13:31:37.201Z,100905.27
2023-02-22T13:34:12.906Z,100903.86
2023-02-22T13:36:48.562Z,100903.34
2023-02-22T13:39:35.957Z,100900.85
2023-02-22T13:42:37.255Z,100902.08
2023-02-22T13:45:30.185Z,100902.63
2023-02-22T13:48:15.944Z,100901.98
2023-02-22T13:50:56.417Z,100899.83
2023-02-22T13:53:28.041Z,100900.00
2023-02-22T13:55:59.365Z,100902.63
2023-02-22T13:58:32.958Z,100906.87
2023-02-22T14:01:03.171Z,100908.36
2023-02-22T14:04:13.014Z,100908.29
2023-02-22T14:06:42.604Z,100907.29
2023-02-22T14:09:18.114Z,100904.42
2023-02-22T14:11:50.235Z,100906.17
2023-02-22T14:14:20.139Z,100903.67
2023-02-22T14:17:05.744Z,100905.92
2023-02-22T14:19:35.131Z,100904.13
2023-02-22T14:22:05.454Z,100908.15
2023-02-22T14:24:43.634Z,100901.42
2023-02-22T14:27:14.031Z,100899.33
2023-02-22T14:29:52.709Z,100902.66
2023-02-22T14:32:30.448Z,100904.34
2023-02-22T14:35:00.727Z,100900.90
2023-02-22T14:37:56.136Z,100901.77
2023-02-22T14:40:35.236Z,100904.67
2023-02-22T14:43:06.268Z,100901.39
2023-02-22T14:45:44.083Z,100903.58
2023-02-22T14:48:50.522Z,100897.25
2023-02-22T14:51:25.802Z,100899.55
2023-02-22T14:54:01.131Z,100894.27
2023-02-22T14:56:33.239Z,100891.23
2023-02-22T14:59:13.246Z,100897.39
2023-02-22T15:01:55.381Z,100898.98
2023-02-22T15:04:31.468Z,100896.95
2023-02-22T15:07:08.468Z,100897.36
2023-02-22T15:09:37.747Z,100899.39
2023-02-22T15:12:14.496Z,100896.45
2023-02-22T15:14:43.708Z,100894.43
2023-02-22T15:17:17.332Z,100896.13
2023-02-22T15:19:47.268Z,100898.89
2023-02-22T15:22:20.969Z,100898.38
2023-02-22T15:24:57.581Z,100898.10
2023-02-22T15:27:27.358Z,100901.75
2023-02-22T15:30:00.206Z,100904.55
2023-02-22T15:32:33.219Z,100906.52
2023-02-22T15:35:16.102Z,100905.17
2023-02-22T15:37:46.628Z,100906.33
2023-02-22T15:40:17.204Z,100906.72
2023-02-22T15:42:47.619Z,100907.77
2023-02-22T15:45:18.023Z,100910.70
2023-02-22T15:47:48.723Z,100911.80
2023-02-22T15:50:19.382Z,100912.85
2023-02-22T15:53:13.038Z,100915.91
2023-02-22T15:55:42.117Z,100913.73
2023-02-22T15:58:32.005Z,100916.89
2023-02-22T16:01:01.767Z,100920.50
2023-02-22T16:03:35.384Z,100920.65
2023-02-22T16:06:09.237Z,100925.13
2023-02-22T16:08:54.113Z,100922.24
2023-02-22T16:11:45.977Z,100925.39
2023-02-22T16:14:26.154Z,100927.08
2023-02-22T16:17:25.050Z,100929.63
2023-02-22T16:20:18.200Z,100935.84
2023-02-22T16:26:29.993Z,100936.31
2023-02-22T16:29:14.509Z,100937.29
2023-02-22T16:31:43.735Z,100935.75
2023-02-22T16:34:14.563Z,100939.35
2023-02-22T16:36:44.706Z,100936.83
2023-02-22T16:39:17.223Z,100937.09
2023-02-22T16:41:46.424Z,100934.98
2023-02-22T16:44:15.596Z,100932.58
2023-02-22T16:46:44.738Z,100936.11
2023-02-22T16:49:13.933Z,100936.94
2023-02-22T16:52:06.333Z,100936.98
2023-02-22T16:54:41.357Z,100942.93
2023-02-22T16:57:15.895Z,100942.85
2023-02-22T16:59:45.407Z,100948.39
2023-02-22T17:02:15.062Z,100950.23
2023-02-22T17:04:44.189Z,100950.35
2023-02-22T17:07:13.733Z,100948.91
2023-02-22T17:09:42.799Z,100946.98
2023-02-22T17:12:12.109Z,100946.49
2023-02-22T17:14:44.620Z,100946.16
2023-02-22T17:17:14.497Z,100949.72
2023-02-22T17:19:43.582Z,100953.06
2023-02-22T17:22:18.226Z,100951.80
2023-02-22T17:24:47.525Z,100952.68
2023-02-22T17:27:16.630Z,100958.10
2023-02-22T17:29:45.711Z,100957.87
2023-02-22T17:32:14.993Z,100957.11
2023-02-22T17:34:44.321Z,100955.70
2023-02-22T17:37:13.450Z,100955.95
2023-02-22T17:39:42.530Z,100954.38
2023-02-22T17:42:11.598Z,100955.93
2023-02-22T17:44:40.910Z,100951.77
2023-02-22T17:47:18.360Z,100949.80
2023-02-22T17:49:50.328Z,100946.33
2023-02-22T17:52:21.650Z,100949.27
2023-02-22T17:54:50.995Z,100951.86
2023-02-22T17:57:22.334Z,100948.85
2023-02-22T17:59:51.589Z,100948.20
2023-02-22T18:02:20.769Z,100946.83
2023-02-22T18:04:50.032Z,100948.21
2023-02-22T18:07:19.199Z,100947.04
2023-02-22T18:09:48.368Z,100941.50
2023-02-22T18:12:37.441Z,100940.50
2023-02-22T18:15:07.497Z,100940.62
2023-02-22T18:17:37.863Z,100944.45
2023-02-22T18:20:08.707Z,100940.59
2023-02-22T18:22:40.604Z,100938.35
2023-02-22T18:25:10.015Z,100938.42
2023-02-22T18:27:39.263Z,100943.15
2023-02-22T18:33:08.608Z,100942.21
2023-02-22T18:35:37.833Z,100942.63
2023-02-22T18:38:07.268Z,100946.89
2023-02-22T18:40:36.402Z,100947.23
2023-02-22T18:43:05.566Z,100947.21
2023-02-22T18:45:34.632Z,100946.77
2023-02-22T18:48:03.863Z,100945.83
2023-02-22T18:50:33.919Z,100946.36
2023-02-22T18:53:03.063Z,100944.71
2023-02-22T18:55:34.429Z,100942.78
2023-02-22T18:58:03.845Z,100945.84
2023-02-22T19:00:35.266Z,100942.73
2023-02-22T19:03:04.798Z,100941.23
2023-02-22T19:05:35.129Z,100941.50
2023-02-22T19:08:08.713Z,100942.77
2023-02-22T19:10:37.829Z,100938.75
2023-02-22T19:13:06.894Z,100940.02
2023-02-22T19:15:36.000Z,100938.88
2023-02-22T19:18:05.626Z,100933.91
2023-02-22T19:20:35.061Z,100931.64
2023-02-22T19:23:04.434Z,100932.83
2023-02-22T19:25:33.574Z,100933.41
2023-02-22T19:28:02.685Z,100933.33
2023-02-22T19:30:32.049Z,100931.73
2023-02-22T19:33:01.192Z,100933.81
2023-02-22T19:35:30.293Z,100927.48
2023-02-22T19:37:59.538Z,100933.23
2023-02-22T19:40:32.228Z,100932.76
2023-02-22T19:43:01.373Z,100933.45
2023-02-22T19:45:30.553Z,100932.54
2023-02-22T19:47:59.705Z,100933.48
2023-02-22T19:50:28.837Z,100940.47
2023-02-22T19:52:57.917Z,100938.28
2023-02-22T19:55:27.054Z,100936.16
2023-02-22T19:57:56.158Z,100936.97
2023-02-22T20:00:25.304Z,100940.82
2023-02-22T20:02:58.323Z,100940.30
2023-02-22T20:05:27.399Z,100938.27
2023-02-22T20:07:56.425Z,100938.02
2023-02-22T20:13:42.629Z,100938.00
2023-02-22T20:16:12.174Z,100940.73
2023-02-22T20:18:41.330Z,100939.29
2023-02-22T20:21:11.493Z,100941.44
2023-02-22T20:23:40.858Z,100941.70
2023-02-22T20:26:14.086Z,100941.42
2023-02-22T20:28:47.373Z,100940.58
2023-02-22T20:31:17.644Z,100939.45
2023-02-22T20:33:48.402Z,100940.69
2023-02-22T20:36:18.201Z,100937.42
2023-02-22T20:38:51.978Z,100937.42
2023-02-22T20:41:22.875Z,100933.03
2023-02-22T20:43:52.415Z,100930.80
2023-02-22T20:46:21.748Z,100929.73
2023-02-22T20:48:55.628Z,100933.39
2023-02-22T20:51:24.883Z,100928.58
2023-02-22T20:53:54.918Z,100935.08
2023-02-22T20:56:24.607Z,100928.28
2023-02-22T20:58:55.574Z,100934.45
2023-02-22T21:01:24.660Z,100932.73
2023-02-22T21:03:53.737Z,100932.67
2023-02-22T21:06:25.504Z,100931.65
2023-02-22T21:08:55.240Z,100932.00
2023-02-22T21:11:26.448Z,100926.21
2023-02-22T21:13:55.526Z,100924.88
2023-02-22T21:16:25.780Z,100922.64
2023-02-22T21:18:55.584Z,100919.43
2023-02-22T21:21:25.299Z,100915.30
2023-02-22T21:23:55.019Z,100913.87
2023-02-22T21:26:25.523Z,100915.73
2023-02-22T21:28:55.540Z,100918.19
2023-02-22T21:31:25.373Z,100913.98
2023-02-22T21:33:55.669Z,100915.79
2023-02-22T21:36:25.778Z,100913.43
2023-02-22T21:38:56.848Z,100908.45
2023-02-22T21:41:26.996Z,100910.08
2023-02-22T21:43:56.907Z,100909.23
2023-02-22T21:46:26.429Z,100906.23
2023-02-22T21:48:56.277Z,100901.27
2023-02-22T21:51:47.764Z,100902.94
2023-02-22T21:54:16.869Z,100899.31
2023-02-22T21:56:46.070Z,100900.38
2023-02-22T21:59:21.385Z,100899.10
2023-02-22T22:02:11.008Z,100894.86
2023-02-22T22:04:42.073Z,100896.75
2023-02-22T22:07:11.330Z,100893.49
2023-02-22T22:09:42.412Z,100894.88
2023-02-22T22:12:11.674Z,100896.33
2023-02-22T22:14:40.719Z,100892.21
2023-02-22T22:17:11.412Z,100894.92
2023-02-22T22:19:40.786Z,100895.63
2023-02-22T22:22:30.008Z,100896.05
2023-02-22T22:24:59.106Z,100893.76
2023-02-22T22:27:28.150Z,100892.58
2023-02-22T22:29:57.396Z,100892.47
2023-02-22T22:32:26.516Z,100894.61
2023-02-22T22:34:55.877Z,100891.31
2023-02-22T22:37:24.970Z,100885.46
2023-02-22T22:39:54.028Z,100885.79
2023-02-22T22:42:23.149Z,100887.62
2023-02-22T22:44:52.249Z,100888.67
2023-02-22T22:47:21.419Z,100883.14
2023-02-22T22:49:50.497Z,100880.07
2023-02-22T22:52:19.649Z,100880.45
2023-02-22T22:54:48.714Z,100881.77
2023-02-22T22:57:17.847Z,100880.34
2023-02-22T22:59:46.982Z,100880.40
2023-02-22T23:02:16.013Z,100882.96
2023-02-22T23:04:45.046Z,100879.17
2023-02-22T23:07:14.197Z,100880.35
2023-02-22T23:09:43.319Z,100881.61
2023-02-22T23:12:12.377Z,100881.83
2023-02-22T23:14:42.199Z,100877.28
2023-02-22T23:17:12.194Z,100875.89
2023-02-22T23:19:42.142Z,100877.77
2023-02-22T23:22:11.362Z,100876.70
2023-02-22T23:24:40.632Z,100875.36
2023-02-22T23:27:09.757Z,100876.64
2023-02-22T23:29:40.618Z,100877.88
2023-02-22T23:32:09.770Z,100875.15
2023-02-22T23:34:39.058Z,100874.65
2023-02-22T23:37:08.104Z,100874.44
2023-02-22T23:39:37.444Z,100875.36
2023-02-22T23:42:06.621Z,100875.79
2023-02-22T23:44:35.793Z,100875.30
2023-02-22T23:47:05.207Z,100869.32
2023-02-22T23:49:36.442Z,100869.74
2023-02-22T23:52:06.663Z,100870.60
2023-02-22T23:54:36.415Z,100866.42
2023-02-22T23:57:05.949Z,100861.60
2023-02-22T23:59:35.135Z,100860.75
